Gaspé Airport, Quebec

Past 24 Hour Conditions

Date / Time
(EDT)
Conditions Temp
(°F)
Humidity
(%)
Dew Point
(°F)
Wind
(mph)
Pressure
(inches)
Vis
(mi)
Wind Chill
24 October 2014
17:00 Light Rain 43 77 37 NE 3 29.8 12 *
16:00 Light Rain 46 55 31 calm 29.8 15 *
15:00 Mostly Cloudy 48 51 30 WNW 7 29.8 15 *
14:00 Mostly Cloudy 48 46 29 NW 10 29.8 15 *
13:00 Mostly Cloudy 49   47 30 NNW 5 29.8 15 *
12:00 Mostly Cloudy 48 49 30 WNW 6 29.9 15 *
11:00 Mostly Cloudy 44 59 31 W 6 29.9 15 *
10:00 Mostly Cloudy 40 66 30 W 7 29.9 15 *
9:00 Mostly Cloudy 35 85 31 W 5 29.9 15 *
8:00 Mostly Cloudy 30 89 28 W 9 29.9 15 22
7:00 Mainly Sunny 27 95 26 WSW 7 30.0 15 20
6:00 Mainly Clear 26   95 25 WSW 5 30.0 15 20
5:00 Clear 27 96 26 W 5 30.0 15 21
4:00 Clear 28 96 27 W 3 30.0 15 24
3:00 Clear 27 94 26 NW 3 30.0 15 24
2:00 Clear 29 95 27 calm 30.1 15 27
1:00 Clear 29 94 27 WNW 2 30.1 15 26
00:00 Clear 29 94 28 WSW 2 30.1 15 26
23 October 2014
23:00 Clear 29 94 27 W 5 30.1 15 23
22:00 Clear 30 93 29 W 2 30.2 15 28
21:00 Clear 30 93 29 W 3 30.2 15 27
20:00 Clear 32 89 29 W 4 30.2 15 27
19:00 Clear 33 87 29 WSW 6 30.2 15 *
18:00 Mainly Clear 37 80 31 N 4 30.2 15 *
17:00 Mainly Sunny 42 64 31 ENE 4 30.2 15 *
N/A Not available
↑ Highest temperature
↓ Lowest temperature
* Value not significant.

If you require additional historical weather information, please visit Climate Data Online.

Date modified: